sensor_id;sensor_type;location;lat;lon;timestamp;P1;durP1;ratioP1;P2;durP2;ratioP2
58366;SDS011;57745;42.524;12.052;2023-04-24T00:01:26;9.30;;;2.45;;
58366;SDS011;57745;42.524;12.052;2023-04-24T00:03:54;6.00;;;2.60;;
58366;SDS011;57745;42.524;12.052;2023-04-24T00:06:19;5.20;;;2.45;;
58366;SDS011;57745;42.524;12.052;2023-04-24T00:08:45;8.10;;;2.47;;
58366;SDS011;57745;42.524;12.052;2023-04-24T00:11:10;7.13;;;2.60;;
58366;SDS011;57745;42.524;12.052;2023-04-24T00:13:36;9.88;;;2.55;;
58366;SDS011;57745;42.524;12.052;2023-04-24T00:16:02;7.07;;;2.55;;
58366;SDS011;57745;42.524;12.052;2023-04-24T00:18:28;7.38;;;2.92;;
58366;SDS011;57745;42.524;12.052;2023-04-24T00:20:53;6.18;;;2.45;;
58366;SDS011;57745;42.524;12.052;2023-04-24T00:23:19;5.70;;;2.65;;
58366;SDS011;57745;42.524;12.052;2023-04-24T00:25:44;7.85;;;3.13;;
58366;SDS011;57745;42.524;12.052;2023-04-24T00:28:09;9.18;;;2.75;;
58366;SDS011;57745;42.524;12.052;2023-04-24T00:30:35;8.93;;;2.58;;
58366;SDS011;57745;42.524;12.052;2023-04-24T00:33:01;13.73;;;3.10;;
58366;SDS011;57745;42.524;12.052;2023-04-24T00:35:26;6.93;;;3.00;;
58366;SDS011;57745;42.524;12.052;2023-04-24T00:37:52;5.20;;;2.72;;
58366;SDS011;57745;42.524;12.052;2023-04-24T00:40:17;8.75;;;2.83;;
58366;SDS011;57745;42.524;12.052;2023-04-24T00:42:43;6.57;;;3.10;;
58366;SDS011;57745;42.524;12.052;2023-04-24T00:45:09;6.60;;;2.75;;
58366;SDS011;57745;42.524;12.052;2023-04-24T00:47:35;5.53;;;2.78;;
58366;SDS011;57745;42.524;12.052;2023-04-24T00:50:04;7.55;;;3.28;;
58366;SDS011;57745;42.524;12.052;2023-04-24T00:52:31;5.75;;;2.95;;
58366;SDS011;57745;42.524;12.052;2023-04-24T00:54:57;6.40;;;2.53;;
58366;SDS011;57745;42.524;12.052;2023-04-24T00:57:23;5.65;;;3.10;;
58366;SDS011;57745;42.524;12.052;2023-04-24T00:59:49;12.00;;;2.75;;
58366;SDS011;57745;42.524;12.052;2023-04-24T01:02:15;9.18;;;2.70;;
58366;SDS011;57745;42.524;12.052;2023-04-24T01:04:41;8.90;;;3.65;;
58366;SDS011;57745;42.524;12.052;2023-04-24T01:07:07;11.05;;;3.10;;
58366;SDS011;57745;42.524;12.052;2023-04-24T01:09:36;8.70;;;3.10;;
58366;SDS011;57745;42.524;12.052;2023-04-24T01:12:05;8.77;;;2.90;;
58366;SDS011;57745;42.524;12.052;2023-04-24T01:14:31;4.95;;;2.92;;
58366;SDS011;57745;42.524;12.052;2023-04-24T01:16:57;8.38;;;3.60;;
58366;SDS011;57745;42.524;12.052;2023-04-24T01:19:22;7.40;;;3.72;;
58366;SDS011;57745;42.524;12.052;2023-04-24T01:21:48;9.57;;;3.10;;
58366;SDS011;57745;42.524;12.052;2023-04-24T01:24:17;12.13;;;3.95;;
58366;SDS011;57745;42.524;12.052;2023-04-24T01:26:44;7.05;;;3.20;;
58366;SDS011;57745;42.524;12.052;2023-04-24T01:29:10;8.85;;;3.40;;
58366;SDS011;57745;42.524;12.052;2023-04-24T01:31:36;6.88;;;3.53;;
58366;SDS011;57745;42.524;12.052;2023-04-24T01:34:02;9.23;;;3.28;;
58366;SDS011;57745;42.524;12.052;2023-04-24T01:36:28;7.55;;;2.80;;
58366;SDS011;57745;42.524;12.052;2023-04-24T01:38:55;9.60;;;3.53;;
58366;SDS011;57745;42.524;12.052;2023-04-24T01:41:20;8.80;;;3.58;;
58366;SDS011;57745;42.524;12.052;2023-04-24T01:43:46;8.77;;;4.15;;
58366;SDS011;57745;42.524;12.052;2023-04-24T01:46:13;10.23;;;2.80;;
58366;SDS011;57745;42.524;12.052;2023-04-24T01:48:39;6.43;;;2.83;;
58366;SDS011;57745;42.524;12.052;2023-04-24T01:51:05;8.52;;;2.70;;
58366;SDS011;57745;42.524;12.052;2023-04-24T01:53:30;9.20;;;2.72;;
58366;SDS011;57745;42.524;12.052;2023-04-24T01:55:56;9.10;;;3.13;;
58366;SDS011;57745;42.524;12.052;2023-04-24T01:58:22;8.30;;;2.65;;
58366;SDS011;57745;42.524;12.052;2023-04-24T02:00:47;10.00;;;3.03;;
58366;SDS011;57745;42.524;12.052;2023-04-24T02:03:13;9.55;;;2.97;;
58366;SDS011;57745;42.524;12.052;2023-04-24T02:05:38;9.60;;;3.13;;
58366;SDS011;57745;42.524;12.052;2023-04-24T02:08:04;12.45;;;3.33;;
58366;SDS011;57745;42.524;12.052;2023-04-24T02:10:29;6.03;;;2.58;;
58366;SDS011;57745;42.524;12.052;2023-04-24T02:12:55;8.10;;;3.45;;
58366;SDS011;57745;42.524;12.052;2023-04-24T02:15:20;8.88;;;3.05;;
58366;SDS011;57745;42.524;12.052;2023-04-24T02:17:46;7.18;;;2.83;;
58366;SDS011;57745;42.524;12.052;2023-04-24T02:20:11;10.32;;;3.40;;
58366;SDS011;57745;42.524;12.052;2023-04-24T02:22:37;8.40;;;3.30;;
58366;SDS011;57745;42.524;12.052;2023-04-24T02:25:02;8.35;;;2.90;;
58366;SDS011;57745;42.524;12.052;2023-04-24T02:27:28;7.75;;;3.30;;
58366;SDS011;57745;42.524;12.052;2023-04-24T02:29:53;9.38;;;2.72;;
58366;SDS011;57745;42.524;12.052;2023-04-24T02:32:20;7.40;;;3.00;;
58366;SDS011;57745;42.524;12.052;2023-04-24T02:34:45;13.10;;;3.13;;
58366;SDS011;57745;42.524;12.052;2023-04-24T02:37:11;6.55;;;2.72;;
58366;SDS011;57745;42.524;12.052;2023-04-24T02:39:36;8.00;;;3.28;;
58366;SDS011;57745;42.524;12.052;2023-04-24T02:42:01;6.85;;;3.08;;
58366;SDS011;57745;42.524;12.052;2023-04-24T02:44:27;7.38;;;3.05;;
58366;SDS011;57745;42.524;12.052;2023-04-24T02:46:53;8.55;;;3.25;;
58366;SDS011;57745;42.524;12.052;2023-04-24T02:49:18;8.30;;;3.65;;
58366;SDS011;57745;42.524;12.052;2023-04-24T02:51:44;9.18;;;3.17;;
58366;SDS011;57745;42.524;12.052;2023-04-24T02:54:09;8.73;;;3.15;;
58366;SDS011;57745;42.524;12.052;2023-04-24T02:56:35;9.90;;;3.00;;
58366;SDS011;57745;42.524;12.052;2023-04-24T02:59:00;10.60;;;3.17;;
58366;SDS011;57745;42.524;12.052;2023-04-24T03:01:26;9.95;;;3.30;;
58366;SDS011;57745;42.524;12.052;2023-04-24T03:03:51;6.97;;;2.67;;
58366;SDS011;57745;42.524;12.052;2023-04-24T03:06:17;9.40;;;2.92;;
58366;SDS011;57745;42.524;12.052;2023-04-24T03:08:42;11.38;;;3.72;;
58366;SDS011;57745;42.524;12.052;2023-04-24T03:11:07;8.07;;;3.17;;
58366;SDS011;57745;42.524;12.052;2023-04-24T03:13:33;8.07;;;2.90;;
58366;SDS011;57745;42.524;12.052;2023-04-24T03:15:58;9.73;;;2.83;;
58366;SDS011;57745;42.524;12.052;2023-04-24T03:18:24;8.00;;;2.90;;
58366;SDS011;57745;42.524;12.052;2023-04-24T03:20:50;7.88;;;3.38;;
58366;SDS011;57745;42.524;12.052;2023-04-24T03:23:15;8.48;;;3.40;;
58366;SDS011;57745;42.524;12.052;2023-04-24T03:25:41;6.72;;;2.78;;
58366;SDS011;57745;42.524;12.052;2023-04-24T03:28:07;9.60;;;3.13;;
58366;SDS011;57745;42.524;12.052;2023-04-24T03:30:33;11.38;;;3.47;;
58366;SDS011;57745;42.524;12.052;2023-04-24T03:32:58;7.50;;;3.15;;
58366;SDS011;57745;42.524;12.052;2023-04-24T03:35:24;7.28;;;3.13;;
58366;SDS011;57745;42.524;12.052;2023-04-24T03:37:50;8.57;;;3.40;;
58366;SDS011;57745;42.524;12.052;2023-04-24T03:40:15;6.90;;;3.25;;
58366;SDS011;57745;42.524;12.052;2023-04-24T03:42:40;13.45;;;3.72;;
58366;SDS011;57745;42.524;12.052;2023-04-24T03:45:06;8.75;;;3.20;;
58366;SDS011;57745;42.524;12.052;2023-04-24T03:47:32;9.30;;;4.03;;
58366;SDS011;57745;42.524;12.052;2023-04-24T03:49:57;8.00;;;3.17;;
58366;SDS011;57745;42.524;12.052;2023-04-24T03:52:23;5.90;;;2.75;;
58366;SDS011;57745;42.524;12.052;2023-04-24T03:54:48;13.40;;;3.50;;
58366;SDS011;57745;42.524;12.052;2023-04-24T03:57:14;8.68;;;3.28;;
58366;SDS011;57745;42.524;12.052;2023-04-24T03:59:39;11.13;;;3.40;;
58366;SDS011;57745;42.524;12.052;2023-04-24T04:02:05;9.60;;;3.15;;
58366;SDS011;57745;42.524;12.052;2023-04-24T04:04:30;7.05;;;3.13;;
58366;SDS011;57745;42.524;12.052;2023-04-24T04:06:56;9.27;;;3.50;;
58366;SDS011;57745;42.524;12.052;2023-04-24T04:09:21;7.22;;;3.40;;
58366;SDS011;57745;42.524;12.052;2023-04-24T04:11:46;8.35;;;3.05;;
58366;SDS011;57745;42.524;12.052;2023-04-24T04:14:12;12.32;;;3.55;;
58366;SDS011;57745;42.524;12.052;2023-04-24T04:16:37;9.93;;;3.90;;
58366;SDS011;57745;42.524;12.052;2023-04-24T04:19:03;11.00;;;3.60;;
58366;SDS011;57745;42.524;12.052;2023-04-24T04:21:29;7.95;;;3.13;;
58366;SDS011;57745;42.524;12.052;2023-04-24T04:23:56;9.80;;;3.58;;
58366;SDS011;57745;42.524;12.052;2023-04-24T04:26:21;7.38;;;3.00;;
58366;SDS011;57745;42.524;12.052;2023-04-24T04:28:50;7.10;;;3.03;;
58366;SDS011;57745;42.524;12.052;2023-04-24T04:31:21;10.65;;;3.70;;
58366;SDS011;57745;42.524;12.052;2023-04-24T04:33:48;7.30;;;3.08;;
58366;SDS011;57745;42.524;12.052;2023-04-24T04:36:13;7.10;;;3.75;;
58366;SDS011;57745;42.524;12.052;2023-04-24T04:38:39;6.10;;;2.85;;
58366;SDS011;57745;42.524;12.052;2023-04-24T04:41:05;6.30;;;2.63;;
58366;SDS011;57745;42.524;12.052;2023-04-24T04:43:32;6.35;;;3.08;;
58366;SDS011;57745;42.524;12.052;2023-04-24T04:45:59;7.68;;;3.65;;
58366;SDS011;57745;42.524;12.052;2023-04-24T04:48:25;6.78;;;3.53;;
58366;SDS011;57745;42.524;12.052;2023-04-24T04:50:52;10.05;;;3.88;;
58366;SDS011;57745;42.524;12.052;2023-04-24T04:53:17;10.95;;;4.47;;
58366;SDS011;57745;42.524;12.052;2023-04-24T04:55:43;9.63;;;3.55;;
58366;SDS011;57745;42.524;12.052;2023-04-24T04:58:08;9.20;;;3.72;;
58366;SDS011;57745;42.524;12.052;2023-04-24T05:00:34;12.43;;;4.80;;
58366;SDS011;57745;42.524;12.052;2023-04-24T05:03:02;10.93;;;3.40;;
58366;SDS011;57745;42.524;12.052;2023-04-24T05:05:28;8.98;;;3.35;;
58366;SDS011;57745;42.524;12.052;2023-04-24T05:07:54;9.25;;;3.53;;
58366;SDS011;57745;42.524;12.052;2023-04-24T05:10:19;8.98;;;2.97;;
58366;SDS011;57745;42.524;12.052;2023-04-24T05:12:45;10.90;;;3.33;;
58366;SDS011;57745;42.524;12.052;2023-04-24T05:15:10;12.05;;;3.90;;
58366;SDS011;57745;42.524;12.052;2023-04-24T05:17:36;6.00;;;3.58;;
58366;SDS011;57745;42.524;12.052;2023-04-24T05:20:02;10.93;;;3.45;;
58366;SDS011;57745;42.524;12.052;2023-04-24T05:22:30;10.90;;;3.40;;
58366;SDS011;57745;42.524;12.052;2023-04-24T05:24:56;9.13;;;3.50;;
58366;SDS011;57745;42.524;12.052;2023-04-24T05:27:22;10.38;;;3.30;;
58366;SDS011;57745;42.524;12.052;2023-04-24T05:29:47;8.68;;;3.10;;
58366;SDS011;57745;42.524;12.052;2023-04-24T05:32:13;9.18;;;3.65;;
58366;SDS011;57745;42.524;12.052;2023-04-24T05:34:38;9.63;;;3.47;;
58366;SDS011;57745;42.524;12.052;2023-04-24T05:37:03;11.25;;;3.35;;
58366;SDS011;57745;42.524;12.052;2023-04-24T05:39:33;9.23;;;3.63;;
58366;SDS011;57745;42.524;12.052;2023-04-24T05:41:58;11.30;;;3.67;;
58366;SDS011;57745;42.524;12.052;2023-04-24T05:44:24;11.13;;;4.15;;
58366;SDS011;57745;42.524;12.052;2023-04-24T05:46:50;11.90;;;4.03;;
58366;SDS011;57745;42.524;12.052;2023-04-24T05:49:16;7.68;;;3.40;;
58366;SDS011;57745;42.524;12.052;2023-04-24T05:51:41;11.88;;;3.95;;
58366;SDS011;57745;42.524;12.052;2023-04-24T05:54:06;8.35;;;3.67;;
58366;SDS011;57745;42.524;12.052;2023-04-24T05:56:32;9.45;;;3.67;;
58366;SDS011;57745;42.524;12.052;2023-04-24T05:58:57;6.65;;;3.25;;
58366;SDS011;57745;42.524;12.052;2023-04-24T06:01:23;7.95;;;3.28;;
58366;SDS011;57745;42.524;12.052;2023-04-24T06:03:50;9.43;;;3.95;;
58366;SDS011;57745;42.524;12.052;2023-04-24T06:06:15;12.00;;;4.07;;
58366;SDS011;57745;42.524;12.052;2023-04-24T06:08:41;8.02;;;3.05;;
58366;SDS011;57745;42.524;12.052;2023-04-24T06:11:07;7.63;;;3.28;;
58366;SDS011;57745;42.524;12.052;2023-04-24T06:13:33;8.10;;;3.10;;
58366;SDS011;57745;42.524;12.052;2023-04-24T06:15:58;5.93;;;2.90;;
58366;SDS011;57745;42.524;12.052;2023-04-24T06:18:23;6.82;;;2.72;;
58366;SDS011;57745;42.524;12.052;2023-04-24T06:20:49;8.73;;;3.58;;
58366;SDS011;57745;42.524;12.052;2023-04-24T06:23:14;8.38;;;3.30;;
58366;SDS011;57745;42.524;12.052;2023-04-24T06:25:46;7.30;;;3.17;;
58366;SDS011;57745;42.524;12.052;2023-04-24T06:28:11;8.15;;;3.00;;
58366;SDS011;57745;42.524;12.052;2023-04-24T06:30:37;7.80;;;2.85;;
58366;SDS011;57745;42.524;12.052;2023-04-24T06:33:03;8.60;;;3.10;;
58366;SDS011;57745;42.524;12.052;2023-04-24T06:35:28;11.18;;;3.70;;
58366;SDS011;57745;42.524;12.052;2023-04-24T06:37:54;7.13;;;3.08;;
58366;SDS011;57745;42.524;12.052;2023-04-24T06:40:21;12.93;;;4.03;;
58366;SDS011;57745;42.524;12.052;2023-04-24T06:42:46;10.23;;;3.30;;
58366;SDS011;57745;42.524;12.052;2023-04-24T06:45:12;8.38;;;3.45;;
58366;SDS011;57745;42.524;12.052;2023-04-24T06:47:37;8.55;;;3.40;;
58366;SDS011;57745;42.524;12.052;2023-04-24T06:50:03;7.10;;;3.67;;
58366;SDS011;57745;42.524;12.052;2023-04-24T06:52:37;9.02;;;3.33;;
58366;SDS011;57745;42.524;12.052;2023-04-24T06:55:03;8.52;;;3.70;;
58366;SDS011;57745;42.524;12.052;2023-04-24T06:57:29;12.05;;;3.88;;
58366;SDS011;57745;42.524;12.052;2023-04-24T06:59:54;8.35;;;3.67;;
58366;SDS011;57745;42.524;12.052;2023-04-24T07:02:20;9.32;;;4.30;;
58366;SDS011;57745;42.524;12.052;2023-04-24T07:04:45;12.90;;;3.60;;
58366;SDS011;57745;42.524;12.052;2023-04-24T07:07:11;12.13;;;4.68;;
58366;SDS011;57745;42.524;12.052;2023-04-24T07:09:39;8.90;;;4.55;;
58366;SDS011;57745;42.524;12.052;2023-04-24T07:12:07;12.35;;;4.03;;
58366;SDS011;57745;42.524;12.052;2023-04-24T07:14:33;10.98;;;3.53;;
58366;SDS011;57745;42.524;12.052;2023-04-24T07:16:58;8.93;;;4.00;;
58366;SDS011;57745;42.524;12.052;2023-04-24T07:19:23;17.15;;;4.43;;
58366;SDS011;57745;42.524;12.052;2023-04-24T07:21:49;12.65;;;4.03;;
58366;SDS011;57745;42.524;12.052;2023-04-24T07:24:15;10.95;;;3.67;;
58366;SDS011;57745;42.524;12.052;2023-04-24T07:26:40;9.98;;;3.70;;
58366;SDS011;57745;42.524;12.052;2023-04-24T07:29:06;11.82;;;3.75;;
58366;SDS011;57745;42.524;12.052;2023-04-24T07:31:32;13.50;;;4.15;;
58366;SDS011;57745;42.524;12.052;2023-04-24T07:33:58;11.85;;;4.05;;
58366;SDS011;57745;42.524;12.052;2023-04-24T07:36:23;18.30;;;4.40;;
58366;SDS011;57745;42.524;12.052;2023-04-24T07:38:50;11.60;;;4.13;;
58366;SDS011;57745;42.524;12.052;2023-04-24T07:41:16;11.40;;;4.45;;
58366;SDS011;57745;42.524;12.052;2023-04-24T07:43:41;13.07;;;3.92;;
58366;SDS011;57745;42.524;12.052;2023-04-24T07:46:07;12.48;;;3.67;;
58366;SDS011;57745;42.524;12.052;2023-04-24T07:48:34;9.55;;;3.65;;
58366;SDS011;57745;42.524;12.052;2023-04-24T07:51:00;13.63;;;4.13;;
58366;SDS011;57745;42.524;12.052;2023-04-24T07:53:25;9.15;;;3.67;;
58366;SDS011;57745;42.524;12.052;2023-04-24T07:55:50;11.85;;;3.42;;
58366;SDS011;57745;42.524;12.052;2023-04-24T07:58:16;13.02;;;4.72;;
58366;SDS011;57745;42.524;12.052;2023-04-24T08:00:41;15.07;;;4.45;;
58366;SDS011;57745;42.524;12.052;2023-04-24T08:03:07;8.32;;;3.70;;
58366;SDS011;57745;42.524;12.052;2023-04-24T08:05:32;11.13;;;2.83;;
58366;SDS011;57745;42.524;12.052;2023-04-24T08:07:58;12.88;;;3.50;;
58366;SDS011;57745;42.524;12.052;2023-04-24T08:10:24;8.00;;;3.30;;
58366;SDS011;57745;42.524;12.052;2023-04-24T08:12:50;13.38;;;3.80;;
58366;SDS011;57745;42.524;12.052;2023-04-24T08:15:16;12.82;;;2.72;;
58366;SDS011;57745;42.524;12.052;2023-04-24T08:17:41;10.15;;;3.53;;
58366;SDS011;57745;42.524;12.052;2023-04-24T08:20:08;10.02;;;3.30;;
58366;SDS011;57745;42.524;12.052;2023-04-24T08:22:41;11.17;;;3.77;;
58366;SDS011;57745;42.524;12.052;2023-04-24T08:25:08;10.18;;;3.95;;
58366;SDS011;57745;42.524;12.052;2023-04-24T08:27:34;16.40;;;4.90;;
58366;SDS011;57745;42.524;12.052;2023-04-24T08:30:01;12.55;;;3.90;;
58366;SDS011;57745;42.524;12.052;2023-04-24T08:32:28;11.90;;;3.70;;
58366;SDS011;57745;42.524;12.052;2023-04-24T08:34:54;9.82;;;3.92;;
58366;SDS011;57745;42.524;12.052;2023-04-24T08:37:25;10.27;;;2.83;;
58366;SDS011;57745;42.524;12.052;2023-04-24T08:39:52;10.82;;;3.33;;
58366;SDS011;57745;42.524;12.052;2023-04-24T08:42:18;9.70;;;3.00;;
58366;SDS011;57745;42.524;12.052;2023-04-24T08:44:44;10.65;;;2.65;;
58366;SDS011;57745;42.524;12.052;2023-04-24T08:47:11;9.32;;;2.50;;
58366;SDS011;57745;42.524;12.052;2023-04-24T08:49:37;14.30;;;2.72;;
58366;SDS011;57745;42.524;12.052;2023-04-24T08:52:04;8.20;;;3.28;;
58366;SDS011;57745;42.524;12.052;2023-04-24T08:54:30;12.25;;;3.08;;
58366;SDS011;57745;42.524;12.052;2023-04-24T08:57:00;8.13;;;2.80;;
58366;SDS011;57745;42.524;12.052;2023-04-24T08:59:26;11.32;;;3.10;;
58366;SDS011;57745;42.524;12.052;2023-04-24T09:01:53;7.93;;;2.58;;
58366;SDS011;57745;42.524;12.052;2023-04-24T09:04:20;8.18;;;2.30;;
58366;SDS011;57745;42.524;12.052;2023-04-24T09:06:49;6.75;;;2.50;;
58366;SDS011;57745;42.524;12.052;2023-04-24T09:09:16;8.70;;;2.72;;
58366;SDS011;57745;42.524;12.052;2023-04-24T09:11:43;9.90;;;2.55;;
58366;SDS011;57745;42.524;12.052;2023-04-24T09:14:09;10.63;;;2.50;;
58366;SDS011;57745;42.524;12.052;2023-04-24T09:16:35;6.40;;;2.33;;
58366;SDS011;57745;42.524;12.052;2023-04-24T09:19:01;8.43;;;3.08;;
58366;SDS011;57745;42.524;12.052;2023-04-24T09:21:30;9.40;;;3.35;;
58366;SDS011;57745;42.524;12.052;2023-04-24T09:23:58;8.63;;;2.63;;
58366;SDS011;57745;42.524;12.052;2023-04-24T09:26:25;9.90;;;2.53;;
58366;SDS011;57745;42.524;12.052;2023-04-24T09:28:50;10.73;;;2.83;;
58366;SDS011;57745;42.524;12.052;2023-04-24T09:31:17;7.28;;;2.92;;
58366;SDS011;57745;42.524;12.052;2023-04-24T09:33:53;8.15;;;2.65;;
58366;SDS011;57745;42.524;12.052;2023-04-24T09:36:26;8.73;;;2.97;;
58366;SDS011;57745;42.524;12.052;2023-04-24T09:38:59;8.20;;;3.33;;
58366;SDS011;57745;42.524;12.052;2023-04-24T09:41:26;8.73;;;3.00;;
58366;SDS011;57745;42.524;12.052;2023-04-24T09:43:55;8.05;;;2.63;;
58366;SDS011;57745;42.524;12.052;2023-04-24T09:46:28;10.95;;;2.88;;
58366;SDS011;57745;42.524;12.052;2023-04-24T09:48:55;9.25;;;3.15;;
58366;SDS011;57745;42.524;12.052;2023-04-24T09:51:32;12.55;;;3.47;;
58366;SDS011;57745;42.524;12.052;2023-04-24T09:54:00;15.25;;;2.83;;
58366;SDS011;57745;42.524;12.052;2023-04-24T09:56:25;11.68;;;2.88;;
58366;SDS011;57745;42.524;12.052;2023-04-24T09:58:51;12.00;;;3.25;;
58366;SDS011;57745;42.524;12.052;2023-04-24T10:01:28;12.02;;;2.88;;
58366;SDS011;57745;42.524;12.052;2023-04-24T10:03:55;13.27;;;3.40;;
58366;SDS011;57745;42.524;12.052;2023-04-24T10:06:21;11.15;;;3.05;;
58366;SDS011;57745;42.524;12.052;2023-04-24T10:08:46;9.40;;;2.95;;
58366;SDS011;57745;42.524;12.052;2023-04-24T10:11:13;7.43;;;2.33;;
58366;SDS011;57745;42.524;12.052;2023-04-24T10:13:39;6.22;;;2.50;;
58366;SDS011;57745;42.524;12.052;2023-04-24T10:16:05;10.73;;;2.83;;
58366;SDS011;57745;42.524;12.052;2023-04-24T10:18:32;14.90;;;2.97;;
58366;SDS011;57745;42.524;12.052;2023-04-24T10:20:59;11.60;;;3.20;;
58366;SDS011;57745;42.524;12.052;2023-04-24T10:23:25;18.23;;;3.63;;
58366;SDS011;57745;42.524;12.052;2023-04-24T10:25:51;8.95;;;3.08;;
58366;SDS011;57745;42.524;12.052;2023-04-24T10:28:17;8.05;;;2.50;;
58366;SDS011;57745;42.524;12.052;2023-04-24T10:30:45;10.93;;;3.90;;
58366;SDS011;57745;42.524;12.052;2023-04-24T10:33:12;7.35;;;3.00;;
58366;SDS011;57745;42.524;12.052;2023-04-24T10:35:43;9.30;;;2.45;;
58366;SDS011;57745;42.524;12.052;2023-04-24T10:38:14;10.18;;;2.92;;
58366;SDS011;57745;42.524;12.052;2023-04-24T10:40:43;10.23;;;2.50;;
58366;SDS011;57745;42.524;12.052;2023-04-24T10:43:09;9.93;;;2.33;;
58366;SDS011;57745;42.524;12.052;2023-04-24T10:45:36;9.25;;;2.53;;
58366;SDS011;57745;42.524;12.052;2023-04-24T10:48:03;6.85;;;2.45;;
58366;SDS011;57745;42.524;12.052;2023-04-24T10:50:45;5.20;;;2.45;;
58366;SDS011;57745;42.524;12.052;2023-04-24T10:53:16;7.80;;;2.42;;
58366;SDS011;57745;42.524;12.052;2023-04-24T10:55:44;9.05;;;2.75;;
58366;SDS011;57745;42.524;12.052;2023-04-24T10:58:12;8.25;;;2.65;;
58366;SDS011;57745;42.524;12.052;2023-04-24T11:00:38;9.20;;;2.47;;
58366;SDS011;57745;42.524;12.052;2023-04-24T11:03:22;10.45;;;2.78;;
58366;SDS011;57745;42.524;12.052;2023-04-24T11:08:29;9.07;;;2.33;;
58366;SDS011;57745;42.524;12.052;2023-04-24T11:11:09;9.85;;;2.28;;
58366;SDS011;57745;42.524;12.052;2023-04-24T11:19:01;13.48;;;3.17;;
58366;SDS011;57745;42.524;12.052;2023-04-24T11:21:39;12.40;;;2.87;;
58366;SDS011;57745;42.524;12.052;2023-04-24T11:24:25;7.88;;;3.22;;
58366;SDS011;57745;42.524;12.052;2023-04-24T11:26:57;14.52;;;3.70;;
58366;SDS011;57745;42.524;12.052;2023-04-24T11:32:22;11.60;;;3.92;;
58366;SDS011;57745;42.524;12.052;2023-04-24T11:37:23;8.55;;;3.20;;
58366;SDS011;57745;42.524;12.052;2023-04-24T11:39:50;11.55;;;3.38;;
58366;SDS011;57745;42.524;12.052;2023-04-24T11:42:17;11.50;;;3.45;;
58366;SDS011;57745;42.524;12.052;2023-04-24T11:44:43;11.60;;;3.58;;
58366;SDS011;57745;42.524;12.052;2023-04-24T11:47:09;13.27;;;3.63;;
58366;SDS011;57745;42.524;12.052;2023-04-24T11:49:37;10.43;;;2.90;;
58366;SDS011;57745;42.524;12.052;2023-04-24T11:52:03;10.77;;;2.60;;
58366;SDS011;57745;42.524;12.052;2023-04-24T11:54:29;8.98;;;2.45;;
58366;SDS011;57745;42.524;12.052;2023-04-24T11:56:56;11.55;;;2.70;;
58366;SDS011;57745;42.524;12.052;2023-04-24T11:59:22;12.40;;;2.38;;
58366;SDS011;57745;42.524;12.052;2023-04-24T12:01:47;6.95;;;2.28;;
58366;SDS011;57745;42.524;12.052;2023-04-24T12:04:14;7.75;;;2.15;;
58366;SDS011;57745;42.524;12.052;2023-04-24T12:07:00;8.13;;;2.60;;
58366;SDS011;57745;42.524;12.052;2023-04-24T12:09:26;7.20;;;2.50;;
58366;SDS011;57745;42.524;12.052;2023-04-24T12:11:55;6.75;;;2.25;;
58366;SDS011;57745;42.524;12.052;2023-04-24T12:14:22;7.63;;;2.17;;
58366;SDS011;57745;42.524;12.052;2023-04-24T12:16:48;6.93;;;2.42;;
58366;SDS011;57745;42.524;12.052;2023-04-24T12:19:18;5.40;;;2.20;;
58366;SDS011;57745;42.524;12.052;2023-04-24T12:22:03;5.80;;;2.00;;
58366;SDS011;57745;42.524;12.052;2023-04-24T12:24:30;6.28;;;3.00;;
58366;SDS011;57745;42.524;12.052;2023-04-24T12:26:56;5.45;;;2.03;;
58366;SDS011;57745;42.524;12.052;2023-04-24T12:29:23;6.25;;;2.15;;
58366;SDS011;57745;42.524;12.052;2023-04-24T12:31:49;6.65;;;2.20;;
58366;SDS011;57745;42.524;12.052;2023-04-24T12:36:48;6.22;;;2.05;;
58366;SDS011;57745;42.524;12.052;2023-04-24T12:39:17;6.20;;;1.80;;
58366;SDS011;57745;42.524;12.052;2023-04-24T12:44:36;6.35;;;1.90;;
58366;SDS011;57745;42.524;12.052;2023-04-24T12:47:02;8.13;;;1.90;;
58366;SDS011;57745;42.524;12.052;2023-04-24T12:49:27;5.55;;;1.92;;
58366;SDS011;57745;42.524;12.052;2023-04-24T12:51:55;4.55;;;1.58;;
58366;SDS011;57745;42.524;12.052;2023-04-24T12:54:20;6.18;;;1.77;;
58366;SDS011;57745;42.524;12.052;2023-04-24T12:56:46;7.18;;;2.38;;
58366;SDS011;57745;42.524;12.052;2023-04-24T12:59:12;7.57;;;2.97;;
58366;SDS011;57745;42.524;12.052;2023-04-24T13:01:37;5.18;;;2.33;;
58366;SDS011;57745;42.524;12.052;2023-04-24T13:04:03;5.63;;;2.45;;
58366;SDS011;57745;42.524;12.052;2023-04-24T13:06:28;4.40;;;2.38;;
58366;SDS011;57745;42.524;12.052;2023-04-24T13:08:53;3.53;;;2.28;;
58366;SDS011;57745;42.524;12.052;2023-04-24T13:11:20;4.50;;;1.90;;
58366;SDS011;57745;42.524;12.052;2023-04-24T13:13:47;4.07;;;1.65;;
58366;SDS011;57745;42.524;12.052;2023-04-24T13:16:12;4.10;;;1.40;;
58366;SDS011;57745;42.524;12.052;2023-04-24T13:18:38;3.70;;;1.45;;
58366;SDS011;57745;42.524;12.052;2023-04-24T13:21:03;4.45;;;1.45;;
58366;SDS011;57745;42.524;12.052;2023-04-24T13:23:29;2.95;;;1.20;;
58366;SDS011;57745;42.524;12.052;2023-04-24T13:25:54;6.68;;;2.05;;
58366;SDS011;57745;42.524;12.052;2023-04-24T13:28:22;5.85;;;1.33;;
58366;SDS011;57745;42.524;12.052;2023-04-24T13:30:48;2.60;;;1.20;;
58366;SDS011;57745;42.524;12.052;2023-04-24T13:33:14;2.97;;;1.10;;
58366;SDS011;57745;42.524;12.052;2023-04-24T13:35:39;4.32;;;1.38;;
58366;SDS011;57745;42.524;12.052;2023-04-24T13:38:05;3.00;;;1.15;;
58366;SDS011;57745;42.524;12.052;2023-04-24T13:40:31;4.22;;;1.05;;
58366;SDS011;57745;42.524;12.052;2023-04-24T13:42:57;2.05;;;0.93;;
58366;SDS011;57745;42.524;12.052;2023-04-24T13:45:22;3.00;;;1.27;;
58366;SDS011;57745;42.524;12.052;2023-04-24T13:47:48;5.53;;;1.20;;
58366;SDS011;57745;42.524;12.052;2023-04-24T13:50:13;4.78;;;0.80;;
58366;SDS011;57745;42.524;12.052;2023-04-24T13:52:40;4.72;;;0.90;;
58366;SDS011;57745;42.524;12.052;2023-04-24T13:55:05;3.67;;;0.90;;
58366;SDS011;57745;42.524;12.052;2023-04-24T13:57:31;2.65;;;0.90;;
58366;SDS011;57745;42.524;12.052;2023-04-24T13:59:57;2.75;;;1.00;;
58366;SDS011;57745;42.524;12.052;2023-04-24T14:02:26;3.75;;;1.13;;
58366;SDS011;57745;42.524;12.052;2023-04-24T14:04:52;5.22;;;0.80;;
58366;SDS011;57745;42.524;12.052;2023-04-24T14:07:18;6.53;;;1.05;;
58366;SDS011;57745;42.524;12.052;2023-04-24T14:09:43;5.53;;;0.75;;
58366;SDS011;57745;42.524;12.052;2023-04-24T14:12:08;2.35;;;0.73;;
58366;SDS011;57745;42.524;12.052;2023-04-24T14:14:34;4.28;;;1.40;;
58366;SDS011;57745;42.524;12.052;2023-04-24T14:17:00;5.03;;;1.58;;
58366;SDS011;57745;42.524;12.052;2023-04-24T14:19:25;6.53;;;1.02;;
58366;SDS011;57745;42.524;12.052;2023-04-24T14:21:50;4.22;;;1.40;;
58366;SDS011;57745;42.524;12.052;2023-04-24T14:24:16;4.28;;;0.88;;
58366;SDS011;57745;42.524;12.052;2023-04-24T14:26:41;4.88;;;1.08;;
58366;SDS011;57745;42.524;12.052;2023-04-24T14:29:07;6.03;;;1.33;;
58366;SDS011;57745;42.524;12.052;2023-04-24T14:31:32;3.92;;;1.08;;
58366;SDS011;57745;42.524;12.052;2023-04-24T14:33:58;4.07;;;0.88;;
58366;SDS011;57745;42.524;12.052;2023-04-24T14:36:23;3.78;;;0.90;;
58366;SDS011;57745;42.524;12.052;2023-04-24T14:38:49;3.03;;;0.95;;
58366;SDS011;57745;42.524;12.052;2023-04-24T14:41:14;2.30;;;0.80;;
58366;SDS011;57745;42.524;12.052;2023-04-24T14:43:40;2.58;;;0.85;;
58366;SDS011;57745;42.524;12.052;2023-04-24T14:46:06;3.88;;;1.23;;